• Join FlightAware (Why Join?)
  • Login
  • US Flag 
07:33AM EDT


 

Airport Tracker/Info


-or-


 

Live Flight TrackerFlight Track Log ✈ UAL906 ✈ 19-Nov-2013 ✈ EDDF / FRA - KORD

Flight Track Log - Related Links

Times and Time Zones

All times are in EST time to prevent confusion due to time zone crossing. See the UAL906 flight status page for this flight to view local times or setup timezone preferences in your user account.

Time Position Orientation Groundspeed Altitude Reporting Facility
EST Latitude Longitude Course Direction KTS MPH feet Rate Location/Type
07:11AM 50.2885 7.9257 305° West  Level Estimated
07:12AM 50.3617 7.7795 308° West  Level FlightAware Approximate
07:13AM 50.4265 7.6236 303° West  Level Estimated
07:14AM 50.4976 7.4745 307° West  Level FlightAware Approximate
07:15AM 50.5620 7.3177 306° West  Level Estimated
07:16AM 50.6336 7.1687 307° West  Level FlightAware Approximate
07:17AM 50.6975 7.0111 304° West  Level Estimated
07:18AM 50.7613 6.8530 298° West  Level Estimated
07:19AM 50.8248 6.6945 309° West  Level Estimated
07:20AM 50.8881 6.5356 304° West  Level Estimated
07:20AM 50.7728 7.3088 304° West 400 460 23,500  Level FlightAware ADS-B (EDLW / DTM)
07:21AM 50.8384 7.2413 327° Northwest 394 453 24,800 1,260 Climbing FlightAware ADS-B (EDLW / DTM)
07:21AM 50.8868 7.1912 327° Northwest 403 464 25,100 420 Climbing FlightAware ADS-B (EDLW / DTM)
07:22AM 50.9414 7.1346 327° Northwest 419 482 25,300 420 Climbing FlightAware ADS-B (EDLW / DTM)
07:22AM 50.9877 7.0791 323° Northwest 426 490 25,600 540 Climbing FlightAware ADS-B (EDLW / DTM)
07:23AM 51.0354 7.0137 319° Northwest 437 503 25,900 480 Climbing FlightAware ADS-B (EDLW / DTM)
07:23AM 51.0813 6.9428 316° Northwest 447 514 26,100 480 Climbing FlightAware ADS-B (EDLW / DTM)
07:24AM 51.1252 6.8700 314° West 458 527 26,400 540 Climbing FlightAware ADS-B (EDLW / DTM)
07:24AM 51.1698 6.7942 313° West 469 540 26,700 600 Climbing FlightAware ADS-B (EDLW / DTM)
07:25AM 51.2186 6.7106 313° West 480 552 27,100 840 Climbing FlightAware ADS-B (EDKL)
07:26AM 51.3245 6.5298 313° West 488 562 28,200 960 Climbing FlightAware ADS-B (EDLW / DTM)
07:27AM 51.3496 6.4869 313° West 492 566 29,000 840 Climbing FlightAware ADS-B (EDKL)
07:27AM 51.4608 6.2963 313° West 502 578 29,500 900 Climbing FlightAware ADS-B (EDLW / DTM)
07:28AM 51.5136 6.2053 313° West 507 583 30,200 1,140 Climbing FlightAware ADS-B (EDLW / DTM)
07:29AM 51.5189 6.1960 313° West 507 583 31,300 960 Climbing FlightAware ADS-B (EDKL)
07:31AM 51.6146 5.9458 302° West  Level Estimated
07:32AM 51.6767 5.7821 301° West  Level Estimated
07:32AM 51.8660 5.5607 301° West 476 548 33,900  Level FlightAware UK
07:33AM 51.9088 5.4378 302° West 481 554 34,000 120 Climbing FlightAware ADS-B
07:33AM 51.9216 5.4169 302° West 474 545 34,000 -120 Level FlightAware UK
07:33AM 51.9823 5.2765 302° West 472 543 33,900 -120 Descending FlightAware UK
07:34AM 52.0232 5.1912 308° West 476 548 33,900  Level FlightAware UK
07:35AM 52.0705 5.0871 306° West 474 545 33,900 60 Level FlightAware UK
07:35AM 52.0947 5.0355 306° West 479 551 34,000 120 Climbing FlightAware ADS-B
07:35AM 52.1352 4.9474 307° West 479 551 34,000  Level FlightAware ADS-B
07:36AM 52.1851 4.8384 307° West 477 549 34,000 -120 Level FlightAware ADS-B
07:37AM 52.2453 4.7080 307° West 478 550 33,900  Descending FlightAware UK
07:37AM 52.2930 4.6053 307° West 476 548 34,000  Climbing FlightAware UK
07:38AM 52.3461 4.4847 306° West 476 548 33,900 -60 Descending FlightAware UK
07:40AM 52.4609 4.2284 306° West 474 545 33,900  Level FlightAware UK
07:40AM 52.5219 4.0923 306° West 474 545 33,900  Level FlightAware UK
07:41AM 52.5596 4.0073 306° West 474 545 33,900  Level FlightAware UK
07:42AM 52.6564 3.7860 306° West 470 541 33,900  Level FlightAware UK
07:43AM 52.7082 3.6669 306° West 472 543 33,900  Level FlightAware UK
07:43AM 52.7452 3.5816 306° West 474 545 33,900 60 Level FlightAware UK
07:44AM 52.7975 3.4113 306° West 447 514 34,000  Climbing FlightAware ADS-B (EPRZ / RZE)
07:46AM 52.8518 3.1275 306° West 474 545 33,900 -60 Descending FlightAware UK
07:46AM 52.8736 3.0114 287° West 472 543 33,900 60 Level FlightAware UK
07:47AM 52.8848 2.9476 287° West 445 512 34,000 180 Climbing FlightAware ADS-B (EGXW / WTN)
07:47AM 52.8911 2.9142 287° West 474 545 34,000 -180 Level FlightAware UK
07:47AM 52.9122 2.7970 287° West 472 543 33,900 -120 Descending FlightAware UK
07:48AM 52.9334 2.6793 287° West 472 543 33,900 60 Level FlightAware UK
07:49AM 52.9581 2.5412 287° West 474 545 34,000 60 Climbing FlightAware UK
07:49AM 52.9680 2.4862 287° West 457 526 34,000  Level FlightAware ADS-B (EGXW / WTN)
07:50AM 52.9948 2.3354 287° West 460 529 34,000  Level FlightAware ADS-B (EGLC / LCY)
07:50AM 53.0171 2.2168 287° West 460 529 34,000  Level FlightAware ADS-B (EGLC / LCY)
07:51AM 53.0392 2.0976 287° West 480 552 34,000  Level FlightAware UK
07:51AM 53.0519 2.0296 287° West 461 531 34,000  Level FlightAware ADS-B (EGXW / WTN)
07:52AM 53.0769 1.8935 287° West 460 529 34,000  Level FlightAware ADS-B (EGXW / WTN)
07:52AM 53.0845 1.8513 287° West 460 529 34,000  Level FlightAware ADS-B
07:53AM 53.1025 1.7520 287° West 458 527 34,000  Level FlightAware ADS-B (EGXW / WTN)
07:53AM 53.1111 1.7042 287° West 458 527 34,000  Level FlightAware ADS-B
07:53AM 53.1217 1.6450 287° West 459 528 34,000  Level FlightAware ADS-B (EGXW / WTN)
07:53AM 53.1300 1.5987 287° West 459 528 34,000  Level FlightAware ADS-B
07:54AM 53.1446 1.5164 287° West 461 531 34,000  Level FlightAware ADS-B (EGXW / WTN)
07:54AM 53.1520 1.4749 287° West 462 532 34,000  Level FlightAware ADS-B
07:54AM 53.1643 1.4061 287° West 463 533 34,000  Level FlightAware ADS-B (EPRZ / RZE)
07:55AM 53.1706 1.3703 286° West 463 533 34,000  Level FlightAware ADS-B
07:55AM 53.1819 1.3060 286° West 465 535 34,000  Level FlightAware ADS-B (EGXW / WTN)
07:55AM 53.1896 1.2625 286° West 465 535 34,000  Level FlightAware ADS-B
07:55AM 53.2060 1.1687 286° West 464 534 34,000  Level FlightAware ADS-B (EGXW / WTN)
07:56AM 53.2086 1.1540 286° West 464 534 34,000  Level FlightAware ADS-B
07:56AM 53.2284 1.0406 286° West 463 533 34,000  Level FlightAware ADS-B
07:57AM 53.2489 0.9220 286° West 464 534 34,000  Level FlightAware ADS-B
07:57AM 53.2370 0.9910 106° East 464 534 34,000  Level FlightAware ADS-B (EGXW / WTN)
07:57AM 53.2676 0.8132 286° West 464 534 34,000  Level FlightAware ADS-B (EGOS)
07:58AM 53.2864 0.7023 286° West 465 535 34,000  Level FlightAware ADS-B
07:58AM 53.2966 0.6426 286° West 465 535 34,000  Level FlightAware ADS-B
07:58AM 53.3058 0.5881 286° West 465 535 34,000  Level FlightAware ADS-B
07:59AM 53.3144 0.5382 286° West 465 535 34,000  Level FlightAware ADS-B
07:59AM 53.3228 0.4885 286° West 465 535 34,000  Level FlightAware ADS-B (EGXW / WTN)
07:59AM 53.3330 0.4274 286° West 465 535 34,000  Level FlightAware ADS-B
07:59AM 53.3431 0.3670 286° West 465 535 34,000  Level FlightAware ADS-B (EGXW / WTN)
08:00AM 53.3504 0.3230 286° West 466 536 34,000  Level FlightAware ADS-B
08:00AM 53.3606 0.2614 286° West 466 536 34,000  Level FlightAware ADS-B (EGXW / WTN)
08:00AM 53.3694 0.2083 285° West 467 537 34,000  Level FlightAware ADS-B
08:00AM 53.3777 0.1588 286° West 467 537 34,000  Level FlightAware ADS-B (EGXW / WTN)
08:01AM 53.3867 0.1042 286° West 467 537 34,000  Level FlightAware ADS-B
08:01AM 53.3950 0.0538 285° West 468 539 34,000  Level FlightAware ADS-B (EGXW / WTN)
08:01AM 53.4046 -0.0048 285° West 467 537 34,000  Level FlightAware ADS-B
08:01AM 53.4125 -0.0533 285° West 468 539 34,000  Level FlightAware ADS-B (EGXW / WTN)
08:02AM 53.4220 -0.1120 285° West 469 540 34,000  Level FlightAware ADS-B
08:02AM 53.4265 -0.1396 285° West 469 540 34,000  Level FlightAware ADS-B (EPRZ / RZE)
08:02AM 53.4310 -0.1676 285° West 469 540 34,000  Level FlightAware ADS-B (EPRZ / RZE)
08:02AM 53.4368 -0.2037 285° West 470 541 34,000  Level FlightAware ADS-B (EPRZ / RZE)
08:02AM 53.4394 -0.2195 285° West 470 541 34,000  Level FlightAware ADS-B
08:02AM 53.4452 -0.2557 285° West 468 539 34,000  Level FlightAware ADS-B
08:03AM 53.4619 -0.3596 285° West 470 541 34,000  Level FlightAware ADS-B
08:03AM 53.4780 -0.4598 285° West 471 542 34,000  Level FlightAware ADS-B (EGOS)
08:04AM 53.4980 -0.5866 285° West 470 541 34,000  Level FlightAware ADS-B
08:04AM 53.4986 -0.5901 285° West 471 542 34,000  Level FlightAware ADS-B (EGXW / WTN)
08:04AM 53.5085 -0.6529 285° West 470 541 34,000  Level FlightAware ADS-B
08:04AM 53.5150 -0.6936 285° West 473 544 34,000  Level FlightAware ADS-B
08:05AM 53.5217 -0.7367 285° West 472 543 34,000  Level FlightAware ADS-B (EGXW / WTN)
08:05AM 53.5326 -0.8064 285° West 472 543 34,000  Level FlightAware ADS-B
08:05AM 53.5386 -0.8453 285° West 472 543 34,000  Level FlightAware ADS-B (EGXW / WTN)
08:05AM 53.5452 -0.8878 285° West 473 544 34,000  Level FlightAware ADS-B (EGXW / WTN)
08:05AM 53.5494 -0.9143 285° West 472 543 34,000  Level FlightAware ADS-B (EGXW / WTN)
08:06AM 53.5530 -0.9381 284° West 472 543 34,000  Level FlightAware ADS-B
08:06AM 53.5564 -0.9597 285° West 473 544 34,000  Level FlightAware ADS-B (EGXW / WTN)
08:06AM 53.5696 -1.0457 284° West 474 545 34,000  Level FlightAware ADS-B
08:06AM 53.5731 -1.0684 284° West 474 545 34,000  Level FlightAware ADS-B
08:07AM 53.5871 -1.1602 284° West 473 544 34,000  Level FlightAware ADS-B
08:07AM 53.5894 -1.1762 284° West 474 545 34,000  Level FlightAware ADS-B (EGXW / WTN)
08:07AM 53.6041 -1.2732 284° West 471 542 34,000  Level FlightAware ADS-B
08:07AM 53.6059 -1.2849 285° West 472 543 34,000  Level FlightAware ADS-B (EGXW / WTN)
08:08AM 53.6224 -1.3943 284° West 471 542 34,000  Level FlightAware ADS-B
08:08AM 53.6374 -1.4946 284° West 471 542 34,000  Level FlightAware ADS-B (EGXW / WTN)
08:08AM 53.6423 -1.5265 284° West 470 541 34,000  Level FlightAware ADS-B
08:09AM 53.6547 -1.6093 284° West 470 541 34,000  Level FlightAware ADS-B (EGNT / NCL)
08:09AM 53.6583 -1.6338 284° West 470 541 34,000  Level FlightAware ADS-B
08:09AM 53.6720 -1.7270 284° West 470 541 34,000  Level FlightAware ADS-B (EGBS)
08:09AM 53.6741 -1.7412 284° West 470 541 34,000 540 Level FlightAware ADS-B
08:10AM 53.6889 -1.8421 284° West 469 540 34,300 600 Climbing FlightAware ADS-B (EGBS)
08:10AM 53.6898 -1.8481 284° West 469 540 34,300 960 Level FlightAware ADS-B
08:10AM 53.7010 -1.9255 284° West 467 537 34,700 900 Climbing FlightAware ADS-B (EGFH / SWS)
08:10AM 53.7057 -1.9579 284° West 466 536 34,800 780 Climbing FlightAware ADS-B
08:11AM 53.7169 -2.0345 284° West 466 536 35,100 720 Climbing FlightAware ADS-B (EGXW / WTN)
08:11AM 53.7221 -2.0715 284° West 465 535 35,200 360 Climbing FlightAware ADS-B
08:11AM 53.7241 -2.0854 283° West 467 537 35,200  Level FlightAware ADS-B
08:11AM 53.7270 -2.1055 284° West 468 539 35,200 480 Level FlightAware ADS-B (EGNT / NCL)
08:11AM 53.7364 -2.1710 284° West 468 539 35,400 780 Climbing FlightAware ADS-B (EGBS)
08:12AM 53.7467 -2.2436 283° West 465 535 35,700 960 Climbing FlightAware ADS-B (EGXW / WTN)
08:12AM 53.7510 -2.2744 283° West 463 533 35,900 360 Climbing FlightAware ADS-B (EGXW / WTN)
08:12AM 53.7670 -2.3870 284° West 460 529 36,000 120 Climbing FlightAware ADS-B (EGCD)
08:13AM 53.7717 -2.4205 283° West 462 532 36,000  Level FlightAware ADS-B (EGNT / NCL)
08:13AM 53.7802 -2.4804 283° West 462 532 36,000  Level FlightAware ADS-B (EGNT / NCL)
08:13AM 53.7908 -2.5568 283° West 463 533 36,000  Level FlightAware ADS-B (EGXW / WTN)
08:13AM 53.7977 -2.6068 283° West 462 532 36,000  Level FlightAware ADS-B
08:14AM 53.8022 -2.6388 283° West 464 534 36,000  Level FlightAware ADS-B (EGBS)
08:14AM 53.8116 -2.7061 283° West 462 532 36,000  Level FlightAware ADS-B
08:14AM 53.8259 -2.8101 283° West 464 534 36,000  Level FlightAware ADS-B (EGNT / NCL)
08:15AM 53.8311 -2.8481 283° West 463 533 36,000  Level FlightAware ADS-B (EGOW)
08:15AM 53.8335 -2.8658 283° West 465 535 36,000  Level FlightAware ADS-B (EGNT / NCL)
08:15AM 53.8463 -2.9603 283° West 464 534 36,000  Level FlightAware ADS-B (EGOW)
08:16AM 53.8628 -3.0819 283° West 463 533 36,000  Level FlightAware ADS-B (EGOW)
08:16AM 53.8681 -3.1208 283° West 463 533 36,000  Level FlightAware ADS-B (EGBS)
08:17AM 53.8916 -3.2973 283° West 463 533 36,000  Level FlightAware ADS-B
08:17AM 53.8968 -3.3358 283° West 464 534 36,000  Level FlightAware ADS-B (EGXW / WTN)
08:17AM 53.9115 -3.4143 288° West 462 532 36,000  Level FlightAware ADS-B (EGBS)
08:17AM 53.9194 -3.4517 290° West 462 532 36,000  Level FlightAware ADS-B (EGBS)
08:18AM 53.9277 -3.4884 291° West 459 528 36,000  Level FlightAware ADS-B (EGXW / WTN)
08:18AM 53.9532 -3.5948 292° West 462 532 36,000  Level FlightAware ADS-B (EGOW)
08:18AM 53.9683 -3.6574 292° West 459 528 36,000  Level FlightAware ADS-B (EGOW)
08:19AM 53.9913 -3.7533 292° West 459 528 36,000  Level FlightAware ADS-B
08:20AM 54.0200 -3.8761 292° West 460 529 36,000  Level FlightAware ADS-B
08:20AM 54.0478 -3.9963 292° West 463 533 36,000  Level FlightAware ADS-B (EGBS)
08:21AM 54.0644 -4.0685 292° West 459 528 36,000  Level FlightAware ADS-B
08:21AM 54.0912 -4.1847 291° West 463 533 36,000  Level FlightAware ADS-B (EGBS)
08:22AM 54.1152 -4.2895 291° West 462 532 36,000  Level FlightAware ADS-B (EGFH / SWS)
08:22AM 54.1304 -4.3556 291° West 460 529 36,000  Level FlightAware ADS-B (EGFH / SWS)
08:22AM 54.1530 -4.4543 291° West 453 521 36,000  Level FlightAware ADS-B (EGFH / SWS)
08:23AM 54.1901 -4.6184 291° West 488 562 36,000  Level FlightAware UK
08:23AM 54.1998 -4.6599 291° West 444 511 36,000  Level FlightAware ADS-B
08:24AM 54.2343 -4.8138 291° West 484 557 36,000  Level FlightAware UK
08:24AM 54.2369 -4.8248 291° West 439 505 36,000 -180 Level FlightAware ADS-B
08:25AM 54.2602 -4.9301 291° West 482 555 35,900  Descending FlightAware UK
08:25AM 54.2708 -4.9763 291° West 438 504 36,000 60 Climbing FlightAware ADS-B
08:26AM 54.3052 -5.1316 291° West 437 503 36,000  Level FlightAware ADS-B
08:27AM 54.3380 -5.2801 291° West 434 499 36,000  Level FlightAware ADS-B
08:27AM 54.3656 -5.4064 291° West 438 504 36,000  Level FlightAware ADS-B (EGOS)
08:28AM 54.3876 -5.5072 291° West 437 503 36,000  Level FlightAware ADS-B
08:28AM 54.4015 -5.5718 290° West 438 504 36,000  Level FlightAware ADS-B (EGOS)
08:29AM 54.4235 -5.6735 290° West 438 504 36,000  Level FlightAware ADS-B
08:29AM 54.4559 -5.8253 290° West 476 548 36,000  Level FlightAware UK
08:30AM 54.4623 -5.8549 290° West 439 505 36,000  Level FlightAware ADS-B
08:30AM 54.4921 -5.9948 290° West 440 506 36,000  Level FlightAware ADS-B
08:31AM 54.5081 -6.0704 290° West 439 505 36,000  Level FlightAware ADS-B
08:31AM 54.5333 -6.1901 290° West 443 510 36,000  Level FlightAware ADS-B
08:32AM 54.5557 -6.2969 290° West 441 507 36,000  Level FlightAware ADS-B
08:32AM 54.5764 -6.3966 290° West 442 509 36,000  Level FlightAware ADS-B
08:33AM 54.6005 -6.5131 290° West 443 510 36,000  Level FlightAware ADS-B
08:33AM 54.6210 -6.6124 290° West 444 511 36,000  Level FlightAware ADS-B
08:34AM 54.6433 -6.7214 289° West 441 507 36,000  Level FlightAware ADS-B (EIDW / DUB)
08:34AM 54.6511 -6.7594 290° West 441 507 36,000  Level FlightAware ADS-B (EIDW / DUB)
08:35AM 54.6769 -6.8863 289° West 440 506 36,000  Level FlightAware ADS-B
08:35AM 54.6972 -6.9868 289° West 437 503 36,000  Level FlightAware ADS-B
08:36AM 54.7232 -7.1161 289° West 438 504 36,000  Level FlightAware ADS-B
08:37AM 54.7459 -7.2298 289° West 440 506 36,000  Level FlightAware ADS-B
08:37AM 54.7694 -7.3491 289° West 476 548 36,000 -120 Level FlightAware UK
08:38AM 54.7929 -7.4687 289° West 478 550 35,900 -120 Descending FlightAware UK
08:38AM 54.8125 -7.5688 289° West 478 550 35,900  Level FlightAware UK
08:39AM 54.8321 -7.6686 289° West 476 548 35,900 60 Level FlightAware UK
08:39AM 54.8516 -7.7683 289° West 476 548 36,000  Climbing FlightAware UK
08:40AM 54.8710 -7.8683 289° West 476 548 35,900  Descending FlightAware UK
08:40AM 54.8901 -7.9688 288° West 482 555 36,000  Climbing FlightAware UK
08:41AM 54.9094 -8.0695 288° West 482 555 35,900 -120 Descending FlightAware UK
08:41AM 54.9286 -8.1701 288° West 482 555 35,900  Level FlightAware UK
08:42AM 54.9475 -8.2704 288° West 478 550 35,900  Level FlightAware UK
08:42AM 54.9664 -8.3703 288° West 478 550 35,900  Level FlightAware UK
08:43AM 54.9852 -8.4703 288° West 476 548 35,900  Level FlightAware UK
08:43AM 55.0037 -8.5703 288° West 478 550 35,900  Level FlightAware UK
08:44AM 55.0258 -8.6895 288° West 476 548 35,900  Level FlightAware UK
08:44AM 55.0442 -8.7894 288° West 476 548 35,900 60 Level FlightAware UK
08:45AM 55.0624 -8.8894 288° West 478 550 36,000 60 Climbing FlightAware UK
08:45AM 55.0806 -8.9891 288° West 480 552 36,000  Level FlightAware UK
08:47AM 55.1281 -9.2183 290° West  Level Estimated
08:54AM 55.4041 -10.6045 290° West  Level Estimated
08:55AM 55.4422 -10.8041 289° West  Level Estimated
08:56AM 55.4800 -11.0041 289° West  Level Estimated
08:57AM 55.5175 -11.2045 288° West  Level Estimated
08:58AM 55.5546 -11.4052 288° West  Level Estimated
08:59AM 55.5914 -11.6064 288° West  Level Estimated
09:00AM 55.6279 -11.8079 288° West  Level Estimated
09:01AM 55.6641 -12.0097 288° West  Level Estimated
09:02AM 55.6999 -12.2120 288° West  Level Estimated
09:03AM 55.7354 -12.4146 287° West  Level Estimated
09:04AM 55.7706 -12.6176 287° West  Level Estimated
09:05AM 55.8054 -12.8209 287° West  Level Estimated
09:06AM 55.8399 -13.0246 287° West  Level Estimated
09:07AM 55.8741 -13.2287 287° West  Level Estimated
09:08AM 55.9079 -13.4332 287° West  Level Estimated
09:09AM 55.9413 -13.6379 286° West  Level Estimated
09:10AM 55.9745 -13.8431 286° West  Level Estimated
09:11AM 56.0073 -14.0486 286° West  Level Estimated
09:12AM 56.0397 -14.2544 286° West  Level Estimated
09:13AM 56.0718 -14.4606 286° West  Level Estimated
09:14AM 56.1036 -14.6671 285° West  Level Estimated
09:15AM 56.1350 -14.8740 285° West  Level Estimated
09:16AM 56.1661 -15.0812 285° West  Level Estimated
09:17AM 56.1968 -15.2887 285° West  Level Estimated
09:18AM 56.2271 -15.4962 285° West  Level Estimated
09:19AM 56.2582 -15.7116 285° West  Level Estimated
09:20AM 56.2889 -15.9274 284° West  Level Estimated
09:21AM 56.3192 -16.1436 284° West  Level Estimated
09:22AM 56.3492 -16.3601 284° West  Level Estimated
09:23AM 56.3787 -16.5769 284° West  Level Estimated
09:24AM 56.4079 -16.7941 284° West  Level Estimated
09:25AM 56.4367 -17.0116 284° West  Level Estimated
09:26AM 56.4644 -17.2234 283° West  Level Estimated
09:27AM 56.4917 -17.4355 283° West  Level Estimated
09:28AM 56.5186 -17.6479 283° West  Level Estimated
09:29AM 56.5452 -17.8606 283° West  Level Estimated
09:30AM 56.5714 -18.0736 283° West  Level Estimated
09:31AM 56.5972 -18.2869 282° West  Level Estimated
09:32AM 56.6227 -18.5005 282° West  Level Estimated
09:33AM 56.6478 -18.7144 282° West  Level Estimated
09:34AM 56.6725 -18.9285 282° West  Level Estimated
09:35AM 56.6968 -19.1430 282° West  Level Estimated
09:36AM 56.7208 -19.3577 282° West  Level Estimated
09:37AM 56.7445 -19.5727 281° West  Level Estimated
09:38AM 56.7677 -19.7879 281° West  Level Estimated
09:38AM 56.0000 -20.0000 284° West 469 540 36,000  Level ETMS Enhanced Traffic Management System
09:39AM 56.7906 -20.0034 281° West  Level Estimated
09:40AM 56.8131 -20.2192 281° West  Level Estimated
09:41AM 56.8353 -20.4353 281° West  Level Estimated
09:42AM 56.8570 -20.6516 281° West  Level Estimated
09:43AM 56.8784 -20.8681 280° West  Level Estimated
09:44AM 56.1872 -21.3610 283° West 469 540 36,000  Level FlightAware Transoceanic
09:45AM 56.2170 -21.5891 283° West 469 540 36,000  Level FlightAware Transoceanic
09:46AM 56.2463 -21.8175 283° West 469 540 36,000  Level FlightAware Transoceanic
09:47AM 56.2752 -22.0463 283° West 469 540 36,000  Level FlightAware Transoceanic
09:48AM 56.3037 -22.2755 283° West 469 540 36,000  Level FlightAware Transoceanic
09:49AM 56.3317 -22.5050 282° West 469 540 36,000  Level FlightAware Transoceanic
09:50AM 56.3593 -22.7348 282° West 469 540 36,000  Level FlightAware Transoceanic
09:51AM 56.3866 -22.9649 282° West 469 540 36,000  Level FlightAware Transoceanic
09:52AM 56.4133 -23.1954 282° West 469 540 36,000  Level FlightAware Transoceanic
09:53AM 56.4397 -23.4262 282° West 469 540 36,000  Level FlightAware Transoceanic
09:54AM 56.4656 -23.6573 281° West 469 540 36,000  Level FlightAware Transoceanic
09:55AM 56.4911 -23.8887 281° West 469 540 36,000  Level FlightAware Transoceanic
09:56AM 56.5161 -24.1205 281° West 469 540 36,000  Level FlightAware Transoceanic
09:57AM 56.5408 -24.3525 281° West 469 540 36,000  Level FlightAware Transoceanic
09:58AM 56.5650 -24.5849 281° West 469 540 36,000  Level FlightAware Transoceanic
09:59AM 56.5887 -24.8175 280° West 469 540 36,000  Level FlightAware Transoceanic
10:00AM 56.6121 -25.0504 280° West 469 540 36,000  Level FlightAware Transoceanic
10:01AM 56.6349 -25.2836 280° West 469 540 36,000  Level FlightAware Transoceanic
10:02AM 56.6574 -25.5171 280° West 469 540 36,000  Level FlightAware Transoceanic
10:03AM 56.6794 -25.7509 280° West 469 540 36,000  Level FlightAware Transoceanic
10:04AM 56.7010 -25.9849 279° West 469 540 36,000  Level FlightAware Transoceanic
10:05AM 56.7221 -26.2192 279° West 469 540 36,000  Level FlightAware Transoceanic
10:06AM 56.7428 -26.4538 279° West 469 540 36,000  Level FlightAware Transoceanic
10:07AM 56.7631 -26.6886 279° West 469 540 36,000  Level FlightAware Transoceanic
10:08AM 56.7829 -26.9237 279° West 469 540 36,000  Level FlightAware Transoceanic
10:09AM 56.8023 -27.1590 278° West 469 540 36,000  Level FlightAware Transoceanic
10:10AM 56.8212 -27.3945 278° West 469 540 36,000  Level FlightAware Transoceanic
10:11AM 56.8397 -27.6303 278° West 469 540 36,000  Level FlightAware Transoceanic
10:12AM 56.8577 -27.8663 278° West 469 540 36,000  Level FlightAware Transoceanic
10:13AM 56.8753 -28.1026 278° West 469 540 36,000  Level FlightAware Transoceanic
10:14AM 56.8925 -28.3390 277° West 469 540 36,000  Level FlightAware Transoceanic
10:15AM 56.9092 -28.5757 277° West 469 540 36,000  Level FlightAware Transoceanic
10:16AM 56.9255 -28.8126 277° West 469 540 36,000  Level FlightAware Transoceanic
10:17AM 56.9413 -29.0497 277° West 469 540 36,000  Level FlightAware Transoceanic
10:18AM 56.9566 -29.2870 277° West 469 540 36,000  Level FlightAware Transoceanic
10:19AM 56.9715 -29.5245 276° West 469 540 36,000  Level FlightAware Transoceanic
10:20AM 56.9860 -29.7621 276° West 469 540 36,000  Level FlightAware Transoceanic
10:21AM 56.9989 -29.9816 276° West  Level FlightAware Approximate
10:22AM 57.0115 -30.2013 276° West  Level FlightAware Approximate
10:23AM 57.0068 -30.1835 274° West  Level FlightAware Approximate
10:24AM 57.0146 -30.4040 274° West  Level FlightAware Approximate
10:25AM 57.0221 -30.6245 274° West  Level FlightAware Approximate
10:26AM 57.0291 -30.8451 273° West  Level FlightAware Approximate
10:27AM 57.0358 -31.0658 273° West  Level FlightAware Approximate
10:28AM 57.0420 -31.2865 273° West  Level FlightAware Approximate
10:29AM 57.0479 -31.5074 273° West  Level FlightAware Approximate
10:30AM 57.0534 -31.7283 273° West  Level FlightAware Approximate
10:31AM 57.0585 -31.9492 273° West  Level FlightAware Approximate
10:32AM 57.0633 -32.1702 272° West  Level FlightAware Approximate
10:33AM 57.0676 -32.3913 272° West  Level FlightAware Approximate
10:34AM 57.0715 -32.6124 272° West  Level FlightAware Approximate
10:35AM 57.0751 -32.8336 272° West  Level FlightAware Approximate
10:36AM 57.0782 -33.0548 272° West  Level FlightAware Approximate
10:37AM 57.0810 -33.2761 271° West  Level FlightAware Approximate
10:38AM 57.0834 -33.4973 271° West  Level FlightAware Approximate
10:39AM 57.0854 -33.7187 271° West  Level FlightAware Approximate
10:40AM 57.0870 -33.9400 271° West  Level FlightAware Approximate
10:41AM 57.0882 -34.1613 271° West  Level FlightAware Approximate
10:42AM 57.0890 -34.3827 270° West  Level FlightAware Approximate
10:43AM 57.0894 -34.6040 270° West  Level FlightAware Approximate
10:44AM 57.0895 -34.8254 270° West  Level FlightAware Approximate
10:45AM 57.0891 -35.0467 270° West  Level FlightAware Approximate
10:46AM 57.0884 -35.2681 270° West  Level FlightAware Approximate
10:47AM 57.0873 -35.4894 270° West  Level FlightAware Approximate
10:48AM 57.0857 -35.7108 269° West  Level FlightAware Approximate
10:49AM 57.0838 -35.9321 269° West  Level FlightAware Approximate
10:50AM 57.0815 -36.1534 269° West  Level FlightAware Approximate
10:51AM 57.0788 -36.3746 269° West  Level FlightAware Approximate
10:52AM 57.0758 -36.5958 269° West  Level FlightAware Approximate
10:53AM 57.0723 -36.8170 268° West  Level FlightAware Approximate
10:54AM 57.0685 -37.0381 268° West  Level FlightAware Approximate
10:54AM 57.0500 -38.3167 268° West 510 587 36,000  Level Gander Center
10:55AM 57.0651 -37.2593 269° West  Level FlightAware Approximate
10:55AM 57.0500 -38.5667 270° West 510 587 36,000  Level Gander Center
10:56AM 57.0621 -37.4804 269° West  Level FlightAware Approximate
10:56AM 57.0500 -38.8333 270° West 510 587 36,000  Level Gander Center
10:57AM 57.0587 -37.7015 268° West  Level FlightAware Approximate
10:57AM 57.0333 -39.0833 263° West 510 587 36,000  Level Gander Center
10:58AM 57.0549 -37.9226 268° West  Level FlightAware Approximate
10:58AM 57.0333 -39.3500 270° West 510 587 36,000  Level Gander Center
10:59AM 57.0507 -38.1436 268° West  Level FlightAware Approximate
10:59AM 57.0167 -39.6000 263° West 510 587 36,000  Level Gander Center
11:00AM 57.0461 -38.3646 268° West  Level FlightAware Approximate
11:00AM 57.0167 -39.8333 270° West 500 575 36,000  Level Gander Center
11:01AM 57.0167 -40.1167 270° West 500 575 36,000  Level Gander Center
11:02AM 57.0333 -40.3667 277° West 500 575 36,000  Level Gander Center
11:03AM 57.0333 -40.6000 270° West 500 575 36,000  Level Gander Center
11:04AM 57.0500 -40.8500 277° West 500 575 36,000  Level Gander Center
11:05AM 57.0500 -41.1000 270° West 500 575 36,000  Level Gander Center
11:06AM 57.0500 -41.3500 270° West 500 575 36,000  Level Gander Center
11:07AM 57.0667 -41.6167 277° West 500 575 36,000  Level Gander Center
11:08AM 57.0667 -41.8667 270° West 490 564 36,000  Level Gander Center
11:09AM 57.0667 -42.1167 270° West 490 564 36,000  Level Gander Center
11:10AM 57.0667 -42.3667 270° West 490 564 36,000  Level Gander Center
11:11AM 57.1000 -42.6000 285° West 490 564 36,000  Level Gander Center
11:12AM 57.1000 -42.8500 270° West 490 564 36,000  Level Gander Center
11:13AM 57.1000 -43.1000 270° West 490 564 36,000  Level Gander Center
11:14AM 57.1000 -43.3500 270° West 480 552 36,000  Level Gander Center
11:15AM 57.1000 -43.6000 270° West 480 552 36,000  Level Gander Center
11:16AM 57.1000 -43.8333 270° West 470 541 36,000  Level Gander Center
11:17AM 57.1167 -44.0667 278° West 470 541 36,000  Level Gander Center
11:18AM 57.1167 -44.3000 270° West 470 541 36,000  Level Gander Center
11:19AM 57.1167 -44.5500 270° West 470 541 36,000  Level Gander Center
11:20AM 57.1000 -44.7667 262° West 460 529 36,000  Level Gander Center
11:21AM 57.1167 -45.0167 277° West 460 529 36,000  Level Gander Center
11:22AM 57.1167 -45.2333 270° West 460 529 36,000  Level Gander Center
11:23AM 57.1167 -45.4833 270° West 460 529 36,000  Level Gander Center
11:24AM 57.1000 -45.7000 262° West 460 529 36,000  Level Gander Center
11:25AM 57.1000 -45.9667 270° West 460 529 36,000  Level Gander Center
11:26AM 57.1167 -46.2000 278° West 460 529 36,000  Level Gander Center
11:27AM 57.1000 -46.4333 263° West 460 529 36,000  Level Gander Center
11:28AM 57.1000 -46.6500 270° West 460 529 36,000  Level Gander Center
11:29AM 57.0833 -46.9000 263° West 460 529 36,000  Level Gander Center
11:30AM 57.1000 -47.1167 278° West 450 518 36,000  Level Gander Center
11:31AM 57.0833 -47.3667 263° West 450 518 36,000  Level Gander Center
11:32AM 57.0833 -47.5833 270° West 450 518 36,000 600 Level Gander Center
11:33AM 57.0833 -47.8000 270° West 440 506 37,200 900 Climbing Gander Center
11:34AM 57.0833 -48.0333 270° West 440 506 37,900 360 Climbing Gander Center
11:35AM 57.0667 -48.2500 262° West 440 506 38,000  Climbing Gander Center
11:36AM 57.0667 -48.4667 270° West 440 506 38,000  Level Gander Center
11:37AM 57.0667 -48.6833 270° West 440 506 38,000  Level Gander Center
11:38AM 57.0500 -48.9000 262° West 440 506 38,000  Level Gander Center
11:39AM 57.0333 -49.1500 263° West 440 506 38,000  Level Gander Center
11:40AM 57.0333 -49.3667 270° West 450 518 38,000  Level Gander Center
11:41AM 57.0333 -49.6000 270° West 440 506 38,000  Level Gander Center
11:42AM 57.0167 -49.8167 262° West 440 506 38,000  Level Gander Center
11:43AM 57.0000 -50.0333 262° West 440 506 38,000  Level Gander Center
11:44AM 56.9667 -50.2333 253° West 440 506 38,000  Level Gander Center
11:46AM 56.9064 -50.4992 248° West  Level FlightAware Approximate
11:53AM 56.5634 -51.9528 247° West  Level FlightAware Approximate
11:54AM 56.5130 -52.1583 246° West  Level FlightAware Approximate
11:55AM 56.4623 -52.3633 246° West  Level FlightAware Approximate
11:56AM 56.4113 -52.5676 246° West  Level FlightAware Approximate
11:57AM 56.3599 -52.7715 246° West  Level FlightAware Approximate
11:57AM 56.4667 -52.8333 245° Southwest 400 460 38,000  Level Gander Center
11:58AM 56.3082 -52.9748 245° Southwest  Level FlightAware Approximate
11:58AM 56.4333 -53.0000 250° West 400 460 38,000  Level Gander Center
11:59AM 56.2561 -53.1775 245° Southwest  Level FlightAware Approximate
11:59AM 56.4000 -53.1833 252° West 390 449 38,000  Level Gander Center
12:00PM 56.2038 -53.3797 245° Southwest  Level FlightAware Approximate
12:00PM 56.3667 -53.3833 253° West 390 449 38,000  Level Gander Center
12:01PM 56.1510 -53.5813 245° Southwest  Level FlightAware Approximate
12:01PM 56.3167 -53.5667 244° Southwest 390 449 38,000  Level Gander Center
12:02PM 56.0980 -53.7824 245° Southwest  Level FlightAware Approximate
12:02PM 56.2833 -53.7167 248° West 390 449 38,000  Level Gander Center
12:03PM 56.0447 -53.9829 245° Southwest  Level FlightAware Approximate
12:03PM 56.2333 -53.9167 246° West 390 449 38,000  Level Gander Center
12:04PM 56.2000 -54.1000 252° West 400 460 38,000  Level Gander Center
12:05PM 56.1667 -54.2833 252° West 400 460 38,000  Level Gander Center
12:06PM 56.1167 -54.4833 246° West 400 460 38,000  Level Gander Center
12:08PM 56.0512 -54.7749 248° West  Level FlightAware Approximate
12:14PM 55.7833 -55.9333 232° Southwest 390 449 38,000  Level Gander Center
12:15PM 55.7155 -56.1992 248° West  Level FlightAware Approximate
12:15PM 55.7500 -56.1167 252° West 390 449 38,000  Level Gander Center
12:16PM 55.6662 -56.4007 247° West  Level FlightAware Approximate
12:16PM 55.7000 -56.2667 239° Southwest 390 449 38,000  Level Gander Center
12:17PM 55.6165 -56.6016 246° West  Level FlightAware Approximate
12:17PM 55.6667 -56.4500 252° West 390 449 38,000  Level Gander Center
12:18PM 55.5665 -56.8020 246° West  Level FlightAware Approximate
12:18PM 55.6167 -56.6333 244° Southwest 390 449 38,000  Level Gander Center
12:19PM 55.5167 -57.0020 270° West  Level FlightAware Approximate
12:19PM 55.5667 -56.8167 244° Southwest 390 449 38,000  Level Gander Center
12:20PM 55.4462 -57.1782 232° Southwest  Level FlightAware Approximate
12:20PM 55.5333 -56.9667 249° West 390 449 38,000  Level Gander Center
12:21PM 55.4833 -57.1500 244° Southwest 390 449 38,000  Level Gander Center
12:22PM 55.4500 -57.3333 252° West 390 449 38,000  Level Gander Center
12:23PM 55.4333 -57.5167 261° West 390 449 38,000  Level Gander Center
12:24PM 55.3833 -57.7167 246° West 400 460 38,000  Level Gander Center
12:25PM 55.3500 -57.9000 252° West 400 460 38,000  Level Gander Center
12:26PM 55.3333 -58.0833 261° West 400 460 38,000  Level Gander Center
12:27PM 55.3000 -58.2667 252° West 400 460 38,000  Level Gander Center
12:28PM 55.2667 -58.4667 254° West 400 460 38,000  Level Gander Center
12:29PM 55.2333 -58.6500 252° West 400 460 38,000  Level Gander Center
12:30PM 55.2167 -58.8167 260° West 400 460 38,000  Level Gander Center
12:31PM 55.1833 -59.0333 255° West 400 460 38,000  Level Gander Center
12:32PM 55.1500 -59.2000 251° West 410 472 38,000  Level Gander Center
12:33PM 55.1167 -59.4167 255° West 410 472 38,000  Level Gander Center
12:34PM 55.0667 -59.5833 242° Southwest 410 472 38,000  Level Gander Center
12:35PM 55.0333 -59.8000 255° West 410 472 38,000  Level Gander Center
12:36PM 55.0167 -59.9667 260° West 420 483 38,000  Level Gander Center
12:37PM 54.9833 -60.1833 255° West 420 483 38,000  Level Gander Center
12:38PM 54.9333 -60.3500 242° Southwest 430 495 38,000  Level Gander Center
12:39PM 54.9000 -60.5833 256° West 430 495 38,000  Level Gander Center
12:40PM 54.8667 -60.7667 253° West 430 495 38,000  Level Gander Center
12:41PM 54.8333 -60.9667 254° West 430 495 38,000  Level Gander Center
12:42PM 54.7833 -61.1667 247° West 430 495 38,000  Level Gander Center
12:43PM 54.7500 -61.3333 251° West 430 495 38,000  Level Gander Center
12:44PM 54.7167 -61.5667 256° West 440 506 38,000  Level Gander Center
12:45PM 54.6833 -61.7500 253° West 440 506 38,000  Level Gander Center
12:46PM 54.6333 -61.9667 248° West 440 506 38,000  Level Gander Center
12:47PM 54.6000 -62.1500 253° West 440 506 38,000  Level Gander Center
12:48PM 54.5667 -62.3500 254° West 440 506 38,000  Level Gander Center
12:49PM 54.5167 -62.5500 247° West 440 506 38,000  Level Gander Center
12:50PM 54.4667 -62.7500 247° West 440 506 38,000  Level Gander Center
12:51PM 54.4333 -62.9500 254° West 430 495 38,000  Level Gander Center
12:52PM 54.3833 -63.1500 247° West 430 495 38,000  Level Gander Center
12:53PM 54.3500 -63.3500 254° West 430 495 38,000  Level Gander Center
12:54PM 54.3167 -63.5167 251° West 440 506 38,000  Level Gander Center
12:55PM 54.2500 -63.7167 240° Southwest 440 506 38,000  Level Gander Center
12:56PM 54.2167 -63.9167 254° West 440 506 38,000  Level Gander Center
12:57PM 54.1833 -64.1167 254° West 440 506 38,000  Level Gander Center
12:58PM 54.1500 -64.3000 253° West 440 506 38,000  Level Gander Center
12:59PM 54.0833 -64.5000 240° Southwest 440 506 38,000  Level Gander Center
01:00PM 54.0500 -64.7000 254° West 440 506 38,000  Level Gander Center
01:01PM 54.0000 -64.9000 247° West 430 495 38,000  Level Gander Center
01:02PM 53.9500 -65.0833 245° Southwest 430 495 38,000  Level Gander Center
01:03PM 53.9167 -65.2500 251° West 430 495 38,000  Level Gander Center
01:04PM 53.8833 -65.4500 254° West 430 495 38,000  Level Gander Center
01:05PM 53.8167 -65.6500 241° Southwest 430 495 38,000  Level Gander Center
01:06PM 53.7833 -65.8333 253° West 440 506 38,000  Level Gander Center
01:07PM 53.7333 -66.0333 247° West 440 506 38,000  Level Gander Center
01:08PM 53.6833 -66.2167 245° Southwest 440 506 38,000  Level Gander Center
01:09PM 53.6333 -66.4167 247° West 440 506 38,000  Level Gander Center
01:10PM 53.6000 -66.6167 254° West 440 506 38,000  Level Gander Center
01:11PM 53.5333 -66.8333 243° Southwest 440 506 38,000  Level Gander Center
01:12PM 53.5000 -66.9833 250° West 450 518 38,000  Level Gander Center
01:13PM 53.4500 -67.2167 250° West 450 518 38,000  Level Gander Center
01:14PM 53.4167 -67.4000 253° West 450 518 38,000  Level Gander Center
01:15PM 53.3500 -67.5833 239° Southwest 450 518 38,000  Level Gander Center
01:16PM 53.3000 -67.7833 247° West 440 506 38,000  Level Gander Center
01:17PM 53.2667 -67.9667 253° West 450 518 38,000  Level Gander Center
01:18PM 53.2167 -68.1500 246° West 440 506 38,000  Level Gander Center
01:19PM 53.1667 -68.3500 247° West 440 506 38,000  Level Gander Center
01:20PM 53.1333 -68.5333 253° West 440 506 38,000  Level Gander Center
01:21PM 53.0833 -68.7167 246° West 440 506 38,000  Level Gander Center
01:22PM 53.0333 -68.9167 247° West 440 506 38,000  Level Gander Center
01:23PM 52.9833 -69.1000 246° West 440 506 38,000  Level Gander Center
01:24PM 52.9333 -69.2833 246° West 440 506 38,000  Level Gander Center
01:25PM 52.8833 -69.4667 246° West 440 506 38,000  Level Gander Center
01:26PM 52.8167 -69.6833 243° Southwest 440 506 38,000  Level Montreal Center
01:27PM 52.7833 -69.8667 253° West 450 518 38,000  Level Montreal Center
01:28PM 52.7167 -70.0333 237° Southwest 450 518 38,000  Level Montreal Center
01:29PM 52.6833 -70.2333 255° West 440 506 38,000  Level Montreal Center
01:30PM 52.6167 -70.4167 239° Southwest 440 506 38,000  Level Montreal Center
01:31PM 52.5833 -70.6167 255° West 440 506 38,000  Level Montreal Center
01:32PM 52.5167 -70.7833 237° Southwest 440 506 38,000  Level Montreal Center
01:33PM 52.4833 -70.9833 255° West 440 506 38,000  Level Montreal Center
01:34PM 52.4167 -71.1667 239° Southwest 450 518 38,000  Level Montreal Center
01:35PM 52.3667 -71.3500 246° West 440 506 38,000  Level Montreal Center
01:36PM 52.3167 -71.5500 248° West 450 518 38,000  Level Montreal Center
01:37PM 52.2667 -71.7333 246° West 440 506 38,000  Level Montreal Center
01:38PM 52.2167 -71.9000 244° Southwest 440 506 38,000  Level Montreal Center
01:39PM 52.1667 -72.1000 248° West 450 518 38,000  Level Montreal Center
01:40PM 52.1000 -72.2667 237° Southwest 440 506 38,000  Level Montreal Center
01:41PM 52.0500 -72.4667 248° West 440 506 38,000  Level Montreal Center
01:42PM 52.0000 -72.6333 244° Southwest 450 518 38,000  Level Montreal Center
01:43PM 51.9500 -72.8167 246° West 450 518 38,000  Level Montreal Center
01:44PM 51.8833 -73.0167 242° Southwest 450 518 38,000  Level Montreal Center
01:45PM 51.8333 -73.1833 244° Southwest 450 518 38,000  Level Montreal Center
01:46PM 51.7833 -73.3833 248° West 450 518 38,000  Level Montreal Center
01:47PM 51.7167 -73.5500 237° Southwest 450 518 38,000  Level Montreal Center
01:48PM 51.6667 -73.7167 244° Southwest 450 518 38,000  Level Montreal Center
01:49PM 51.6000 -73.9000 240° Southwest 450 518 38,000  Level Montreal Center
01:50PM 51.5500 -74.1000 248° West 450 518 38,000  Level Montreal Center
01:51PM 51.5000 -74.2833 246° West 450 518 38,000  Level Montreal Center
01:52PM 51.4333 -74.4500 237° Southwest 450 518 38,000  Level Montreal Center
01:53PM 51.3833 -74.6500 248° West 450 518 38,000  Level Montreal Center
01:54PM 51.3167 -74.8000 235° Southwest 450 518 38,000  Level Montreal Center
01:55PM 51.2667 -75.0000 248° West 450 518 38,000  Level Montreal Center
01:56PM 51.1833 -75.1667 231° Southwest 450 518 38,000  Level Montreal Center
01:57PM 51.1000 -75.3167 229° Southwest 450 518 38,000  Level Montreal Center
01:58PM 51.0333 -75.4833 238° Southwest 450 518 38,000  Level Montreal Center
01:59PM 50.9500 -75.6167 225° Southwest 450 518 38,000  Level Montreal Center
02:00PM 50.8833 -75.7833 238° Southwest 450 518 38,000  Level Montreal Center
02:01PM 50.8000 -75.9333 229° Southwest 450 518 38,000  Level Montreal Center
02:02PM 50.7167 -76.1000 232° Southwest 450 518 38,000  Level Montreal Center
02:03PM 50.6500 -76.2500 235° Southwest 450 518 38,000  Level Montreal Center
02:04PM 50.5667 -76.4167 232° Southwest 450 518 38,000  Level Montreal Center
02:05PM 50.4833 -76.5667 229° Southwest 450 518 38,000  Level Montreal Center
02:06PM 50.4167 -76.7333 238° Southwest 450 518 38,000  Level Montreal Center
02:07PM 50.3167 -76.8667 220° Southwest 450 518 38,000  Level Montreal Center
02:08PM 50.2333 -77.0167 229° Southwest 460 529 38,000  Level Montreal Center
02:09PM 50.1500 -77.1667 229° Southwest 460 529 38,000  Level Montreal Center
02:10PM 50.0833 -77.3333 238° Southwest 460 529 38,000  Level Montreal Center
02:11PM 50.0000 -77.5167 235° Southwest 460 529 38,000  Level Montreal Center
02:12PM 49.9167 -77.6333 222° Southwest 460 529 38,000  Level Montreal Center
02:13PM 49.8333 -77.8167 235° Southwest 460 529 38,000  Level Montreal Center
02:14PM 49.7333 -77.9667 224° Southwest 460 529 38,000  Level Montreal Center
02:15PM 49.6667 -78.1167 236° Southwest 470 541 38,000  Level Montreal Center
02:16PM 49.5833 -78.2667 229° Southwest 460 529 38,000  Level Montreal Center
02:17PM 49.5000 -78.4000 226° Southwest 460 529 38,000  Level Montreal Center
02:18PM 49.4000 -78.5833 230° Southwest 460 529 38,000  Level Montreal Center
02:19PM 49.3167 -78.7000 222° Southwest 460 529 38,000  Level Montreal Center
02:20PM 49.2500 -78.8833 241° Southwest 450 518 38,000  Level Montreal Center
02:21PM 49.1833 -79.0000 229° Southwest 450 518 38,000  Level Montreal Center
02:22PM 49.0833 -79.1833 230° Southwest 460 529 38,000  Level Montreal Center
02:23PM 49.0000 -79.3167 226° Southwest 450 518 38,000  Level Montreal Center
02:24PM 48.9167 -79.4500 226° Southwest 450 518 38,000  Level Montreal Center
02:25PM 48.8333 -79.6000 230° Southwest 440 506 38,000  Level Montreal Center
02:26PM 48.7500 -79.7333 227° Southwest 440 506 38,000  Level Montreal Center
02:27PM 48.6833 -79.8667 233° Southwest 440 506 38,000  Level Montreal Center
02:28PM 48.5833 -80.0000 221° Southwest 440 506 38,000  Level Montreal Center
02:29PM 48.5167 -80.1500 236° Southwest 440 506 38,000  Level Montreal Center
02:30PM 48.4333 -80.3000 230° Southwest 440 506 38,000  Level Montreal Center
02:31PM 48.3333 -80.4167 218° Southwest 440 506 38,000  Level Montreal Center
02:32PM 48.2667 -80.5667 236° Southwest 440 506 38,000  Level Montreal Center
02:33PM 48.1833 -80.7000 227° Southwest 440 506 38,000  Level Montreal Center
02:34PM 48.1000 -80.8333 227° Southwest 440 506 38,000  Level Toronto Center
02:35PM 48.0167 -80.9833 230° Southwest 430 495 38,000  Level Toronto Center
02:36PM 47.9667 -81.1167 241° Southwest 430 495 38,000  Level Toronto Center
02:37PM 47.8833 -81.2667 230° Southwest 430 495 38,000  Level Toronto Center
02:38PM 47.8333 -81.4167 244° Southwest 430 495 38,000  Level Toronto Center
02:39PM 47.7500 -81.5667 230° Southwest 430 495 38,000  Level Toronto Center
02:40PM 47.7000 -81.7167 244° Southwest 430 495 38,000  Level Toronto Center
02:41PM 47.6167 -81.8500 227° Southwest 430 495 38,000  Level Toronto Center
02:42PM 47.5500 -82.0000 237° Southwest 430 495 38,000  Level Toronto Center
02:43PM 47.4833 -82.1500 237° Southwest 430 495 38,000  Level Toronto Center
02:44PM 47.4167 -82.3000 237° Southwest 430 495 38,000  Level Toronto Center
02:45PM 47.3333 -82.4167 224° Southwest 430 495 38,000  Level Toronto Center
02:46PM 47.2333 -82.5333 218° Southwest 440 506 38,000  Level Toronto Center
02:47PM 47.1500 -82.6167 214° Southwest 440 506 38,000  Level Toronto Center
02:48PM 47.0333 -82.7333 214° Southwest 440 506 38,000  Level Toronto Center
02:49PM 46.9333 -82.8500 219° Southwest 430 495 38,000  Level Toronto Center
02:50PM 46.8500 -82.9500 219° Southwest 430 495 38,000  Level Toronto Center
02:51PM 46.7500 -83.0667 219° Southwest 440 506 38,000  Level Toronto Center
02:52PM 46.6667 -83.1833 224° Southwest 440 506 38,000  Level Toronto Center
02:53PM 46.5500 -83.3000 215° Southwest 440 506 38,000  Level Toronto Center
02:54PM 46.4667 -83.3833 215° Southwest 440 506 38,000  Level Toronto Center
02:55PM 46.3667 -83.5000 219° Southwest 440 506 38,000  Level Toronto Center
02:56PM 46.2667 -83.6167 219° Southwest 440 506 38,000  Level Toronto Center
02:57PM 46.1833 -83.7000 215° Southwest 440 506 38,000  Level Toronto Center
02:58PM 46.0667 -83.8167 215° Southwest 440 506 38,000  Level Toronto Center
02:59PM 45.9833 -83.9333 224° Southwest 440 506 38,000  Level Toronto Center
03:00PM 45.8833 -84.0333 215° Southwest 440 506 38,000  Level Toronto Center
03:01PM 45.7833 -84.1500 219° Southwest 440 506 38,000  Level Toronto Center
03:02PM 45.6833 -84.2333 210° Southwest 440 506 38,000  Level Toronto Center
03:03PM 45.5833 -84.3500 219° Southwest 440 506 38,000  Level Toronto Center
03:04PM 45.5000 -84.4667 224° Southwest 440 506 38,000  Level Toronto Center
03:05PM 45.4000 -84.5667 215° Southwest 440 506 38,000  Level Toronto Center
03:06PM 45.3000 -84.6667 215° Southwest 440 506 38,000  Level Toronto Center
03:07PM 45.1833 -84.7167 197° South 450 518 38,000  Level Toronto Center
03:08PM 45.0500 -84.7833 199° South 460 529 38,000  Level Toronto Center
03:09PM 44.9333 -84.8167 191° South 460 529 38,000  Level Toronto Center
03:10PM 44.8000 -84.8500 190° South 460 529 38,000  Level Toronto Center
03:11PM 44.6833 -84.8833 191° South 460 529 38,000  Level Toronto Center
03:12PM 44.5667 -84.9167 192° South 460 529 38,000 -180 Level Toronto Center
03:13PM 44.4333 -84.9833 200° South 460 529 37,700 -720 Descending Toronto Center
03:14PM 44.3000 -85.0167 190° South 460 529 36,600 -1,140 Descending Toronto Center
03:15PM 44.1833 -85.0500 192° South 470 541 35,500 -1,200 Descending Toronto Center
03:16PM 44.0667 -85.0833 192° South 470 541 34,300 -1,260 Descending Toronto Center
03:17PM 43.9333 -85.1500 200° South 480 552 33,000 -1,080 Descending Toronto Center
03:18PM 43.8986 -85.1503 180° South 474 545 32,700 -660 Descending Minneapolis Center
03:19PM 43.7436 -85.2000 193° South 476 548 32,000 -360 Descending Minneapolis Center
03:20PM 43.6142 -85.2422 193° South 477 549 32,000  Level Minneapolis Center
03:21PM 43.4992 -85.3183 206° Southwest 467 537 32,000  Level Minneapolis Center
03:22PM 43.4217 -85.4475 230° Southwest 444 511 32,000 -480 Level Minneapolis Center
03:23PM 43.3478 -85.5819 233° Southwest 441 507 31,100 -1,140 Descending Minneapolis Center
03:24PM 43.2722 -85.7144 232° Southwest 442 509 29,700 -1,680 Descending Minneapolis Center
03:25PM 43.2281 -85.7922 232° Southwest 439 505 28,600 -1,920 Descending Chicago Center
03:26PM 43.1553 -85.9192 232° Southwest 432 497 26,800 -1,740 Descending Chicago Center
03:27PM 43.0842 -86.0442 232° Southwest 428 493 25,100 -1,800 Descending Chicago Center
03:28PM 43.0011 -86.1858 231° Southwest 418 481 23,100 -1,800 Descending Chicago Center
03:29PM 42.9308 -86.3056 231° Southwest 410 472 21,400 -1,500 Descending Chicago Center
03:30PM 42.8622 -86.4236 232° Southwest 403 464 20,000 -720 Descending Chicago Center
03:31PM 42.7942 -86.5397 231° Southwest 395 455 20,000 -360 Level Chicago Center
03:32PM 42.7253 -86.6558 231° Southwest 397 457 19,300 -1,440 Descending Chicago Center
03:33PM 42.6444 -86.7925 231° Southwest 391 450 17,100 -2,340 Descending Chicago Center
03:34PM 42.5783 -86.9028 231° Southwest 380 437 14,500 -2,280 Descending Chicago Center
03:35PM 42.5200 -87.0056 232° Southwest 347 399 12,500 -2,160 Descending Chicago Center
03:36PM 42.4608 -87.0997 230° Southwest 332 382 10,100 -1,740 Descending Chicago Center
03:37PM 42.4314 -87.1961 248° West 286 329 9,000 -900 Descending Chicago Center
03:43PM 42.0252 -87.4080 248° West 270 311 4,200 -900 Descending FlightAware ADS-B (KPWK)
03:43PM 42.0054 -87.4463 235° Southwest 266 306 3,700 -240 Descending FlightAware ADS-B (KPWK)
03:45PM 41.9659 -87.6265 254° West 231 266 3,600 -300 Descending FlightAware ADS-B (KPWK)
03:46PM 41.9660 -87.7198 270° West 217 250 2,900 -1,020 Descending FlightAware ADS-B (KPWK)
03:48PM 41.9659 -87.8342 270° West 153 176 600 -600 Descending FlightAware ADS-B (KPWK)
03:49PM 41.9628 -87.8989 270° West 176 203 1,100 360 Climbing Chicago Center